sensor_id;sensor_type;location;lat;lon;timestamp;temperature;humidity
26186;DHT22;20067;48.764;9.176;2022-08-18T00:02:20;20.20;91.10
26186;DHT22;20067;48.764;9.176;2022-08-18T00:04:47;20.20;91.30
26186;DHT22;20067;48.764;9.176;2022-08-18T00:07:20;20.20;90.90
26186;DHT22;20067;48.764;9.176;2022-08-18T00:09:46;20.20;90.90
26186;DHT22;20067;48.764;9.176;2022-08-18T00:12:19;20.10;91.30
26186;DHT22;20067;48.764;9.176;2022-08-18T00:14:46;20.10;90.90
26186;DHT22;20067;48.764;9.176;2022-08-18T00:17:13;20.10;91.00
26186;DHT22;20067;48.764;9.176;2022-08-18T00:19:38;20.10;91.20
26186;DHT22;20067;48.764;9.176;2022-08-18T00:22:04;20.10;91.10
26186;DHT22;20067;48.764;9.176;2022-08-18T00:24:30;20.10;90.90
26186;DHT22;20067;48.764;9.176;2022-08-18T00:26:56;20.10;90.80
26186;DHT22;20067;48.764;9.176;2022-08-18T00:29:22;20.20;90.80
26186;DHT22;20067;48.764;9.176;2022-08-18T00:31:48;20.20;91.30
26186;DHT22;20067;48.764;9.176;2022-08-18T00:34:14;20.30;91.30
26186;DHT22;20067;48.764;9.176;2022-08-18T00:36:39;20.30;91.30
26186;DHT22;20067;48.764;9.176;2022-08-18T00:39:05;20.50;89.90
26186;DHT22;20067;48.764;9.176;2022-08-18T00:41:31;20.40;89.20
26186;DHT22;20067;48.764;9.176;2022-08-18T00:43:57;20.40;90.10
26186;DHT22;20067;48.764;9.176;2022-08-18T00:46:35;20.50;91.00
26186;DHT22;20067;48.764;9.176;2022-08-18T00:49:01;20.60;90.10
26186;DHT22;20067;48.764;9.176;2022-08-18T00:51:42;20.60;89.40
26186;DHT22;20067;48.764;9.176;2022-08-18T00:54:19;20.50;90.40
26186;DHT22;20067;48.764;9.176;2022-08-18T00:56:49;20.60;89.00
26186;DHT22;20067;48.764;9.176;2022-08-18T00:59:30;20.70;87.70
26186;DHT22;20067;48.764;9.176;2022-08-18T01:02:01;20.60;87.70
26186;DHT22;20067;48.764;9.176;2022-08-18T01:07:17;20.60;88.00
26186;DHT22;20067;48.764;9.176;2022-08-18T01:09:46;20.70;87.50
26186;DHT22;20067;48.764;9.176;2022-08-18T01:12:12;20.70;88.40
26186;DHT22;20067;48.764;9.176;2022-08-18T01:14:38;20.60;88.20
26186;DHT22;20067;48.764;9.176;2022-08-18T01:17:03;20.50;88.20
26186;DHT22;20067;48.764;9.176;2022-08-18T01:19:48;20.50;89.10
26186;DHT22;20067;48.764;9.176;2022-08-18T01:25:12;20.60;88.20
26186;DHT22;20067;48.764;9.176;2022-08-18T01:27:57;20.70;88.60
26186;DHT22;20067;48.764;9.176;2022-08-18T01:30:23;20.80;88.50
26186;DHT22;20067;48.764;9.176;2022-08-18T01:32:51;20.90;88.00
26186;DHT22;20067;48.764;9.176;2022-08-18T01:35:18;20.80;87.70
26186;DHT22;20067;48.764;9.176;2022-08-18T01:37:46;20.90;87.60
26186;DHT22;20067;48.764;9.176;2022-08-18T01:40:15;20.90;87.40
26186;DHT22;20067;48.764;9.176;2022-08-18T01:42:41;21.00;87.40
26186;DHT22;20067;48.764;9.176;2022-08-18T01:45:14;20.90;88.00
26186;DHT22;20067;48.764;9.176;2022-08-18T01:47:41;20.90;87.90
26186;DHT22;20067;48.764;9.176;2022-08-18T01:50:08;20.60;89.00
26186;DHT22;20067;48.764;9.176;2022-08-18T01:52:36;20.40;89.60
26186;DHT22;20067;48.764;9.176;2022-08-18T01:55:03;20.30;90.10
26186;DHT22;20067;48.764;9.176;2022-08-18T01:57:29;20.30;90.50
26186;DHT22;20067;48.764;9.176;2022-08-18T01:59:55;20.30;91.10
26186;DHT22;20067;48.764;9.176;2022-08-18T02:02:27;20.40;90.20
26186;DHT22;20067;48.764;9.176;2022-08-18T02:04:59;20.40;89.80
26186;DHT22;20067;48.764;9.176;2022-08-18T02:07:27;20.20;90.40
26186;DHT22;20067;48.764;9.176;2022-08-18T02:09:53;20.10;90.70
26186;DHT22;20067;48.764;9.176;2022-08-18T02:12:19;20.10;91.30
26186;DHT22;20067;48.764;9.176;2022-08-18T02:14:45;20.10;91.00
26186;DHT22;20067;48.764;9.176;2022-08-18T02:17:11;20.20;90.50
26186;DHT22;20067;48.764;9.176;2022-08-18T02:19:43;20.30;90.50
26186;DHT22;20067;48.764;9.176;2022-08-18T02:22:14;20.40;90.50
26186;DHT22;20067;48.764;9.176;2022-08-18T02:24:40;20.50;90.40
26186;DHT22;20067;48.764;9.176;2022-08-18T02:27:07;20.50;89.70
26186;DHT22;20067;48.764;9.176;2022-08-18T02:29:34;20.60;88.90
26186;DHT22;20067;48.764;9.176;2022-08-18T02:32:00;20.60;88.20
26186;DHT22;20067;48.764;9.176;2022-08-18T02:34:25;20.60;88.10
26186;DHT22;20067;48.764;9.176;2022-08-18T02:36:51;20.70;88.50
26186;DHT22;20067;48.764;9.176;2022-08-18T02:39:17;20.60;87.50
26186;DHT22;20067;48.764;9.176;2022-08-18T02:41:43;20.50;87.60
26186;DHT22;20067;48.764;9.176;2022-08-18T02:44:09;20.50;88.20
26186;DHT22;20067;48.764;9.176;2022-08-18T02:46:36;20.50;88.70
26186;DHT22;20067;48.764;9.176;2022-08-18T02:49:03;20.50;89.00
26186;DHT22;20067;48.764;9.176;2022-08-18T02:51:30;20.50;89.50
26186;DHT22;20067;48.764;9.176;2022-08-18T02:53:56;20.40;89.50
26186;DHT22;20067;48.764;9.176;2022-08-18T02:56:27;20.40;89.70
26186;DHT22;20067;48.764;9.176;2022-08-18T02:58:56;20.40;89.90
26186;DHT22;20067;48.764;9.176;2022-08-18T03:01:28;20.40;89.50
26186;DHT22;20067;48.764;9.176;2022-08-18T03:03:55;20.40;89.70
26186;DHT22;20067;48.764;9.176;2022-08-18T03:06:21;20.40;89.60
26186;DHT22;20067;48.764;9.176;2022-08-18T03:08:47;20.30;90.30
26186;DHT22;20067;48.764;9.176;2022-08-18T03:11:20;20.20;89.90
26186;DHT22;20067;48.764;9.176;2022-08-18T03:13:46;20.30;90.10
26186;DHT22;20067;48.764;9.176;2022-08-18T03:16:13;20.30;90.20
26186;DHT22;20067;48.764;9.176;2022-08-18T03:18:40;20.20;90.60
26186;DHT22;20067;48.764;9.176;2022-08-18T03:21:08;20.30;90.80
26186;DHT22;20067;48.764;9.176;2022-08-18T03:23:34;20.30;90.40
26186;DHT22;20067;48.764;9.176;2022-08-18T03:26:01;20.30;90.10
26186;DHT22;20067;48.764;9.176;2022-08-18T03:28:27;20.40;90.30
26186;DHT22;20067;48.764;9.176;2022-08-18T03:30:54;20.30;89.40
26186;DHT22;20067;48.764;9.176;2022-08-18T03:33:20;20.30;90.30
26186;DHT22;20067;48.764;9.176;2022-08-18T03:35:46;20.30;89.90
26186;DHT22;20067;48.764;9.176;2022-08-18T03:38:11;20.30;89.90
26186;DHT22;20067;48.764;9.176;2022-08-18T03:40:37;20.40;90.20
26186;DHT22;20067;48.764;9.176;2022-08-18T03:43:04;20.40;90.00
26186;DHT22;20067;48.764;9.176;2022-08-18T03:45:34;20.40;90.00
26186;DHT22;20067;48.764;9.176;2022-08-18T03:48:00;20.30;90.30
26186;DHT22;20067;48.764;9.176;2022-08-18T03:50:27;20.20;90.40
26186;DHT22;20067;48.764;9.176;2022-08-18T03:52:54;20.20;90.70
26186;DHT22;20067;48.764;9.176;2022-08-18T03:55:25;20.30;90.60
26186;DHT22;20067;48.764;9.176;2022-08-18T03:57:52;20.30;90.30
26186;DHT22;20067;48.764;9.176;2022-08-18T04:00:20;20.10;91.00
26186;DHT22;20067;48.764;9.176;2022-08-18T04:02:47;19.90;91.30
26186;DHT22;20067;48.764;9.176;2022-08-18T04:05:13;19.70;91.30
26186;DHT22;20067;48.764;9.176;2022-08-18T04:07:39;19.60;91.30
26186;DHT22;20067;48.764;9.176;2022-08-18T04:10:05;19.70;91.30
26186;DHT22;20067;48.764;9.176;2022-08-18T04:12:30;19.80;91.30
26186;DHT22;20067;48.764;9.176;2022-08-18T04:14:57;19.90;91.30
26186;DHT22;20067;48.764;9.176;2022-08-18T04:17:22;20.00;91.30
26186;DHT22;20067;48.764;9.176;2022-08-18T04:19:53;20.00;91.30
26186;DHT22;20067;48.764;9.176;2022-08-18T04:22:19;20.10;91.30
26186;DHT22;20067;48.764;9.176;2022-08-18T04:24:46;20.10;91.00
26186;DHT22;20067;48.764;9.176;2022-08-18T04:27:12;20.20;90.50
26186;DHT22;20067;48.764;9.176;2022-08-18T04:29:38;20.20;91.00
26186;DHT22;20067;48.764;9.176;2022-08-18T04:32:03;20.20;90.50
26186;DHT22;20067;48.764;9.176;2022-08-18T04:34:30;20.20;90.70
26186;DHT22;20067;48.764;9.176;2022-08-18T04:36:57;20.20;90.60
26186;DHT22;20067;48.764;9.176;2022-08-18T04:39:23;20.20;90.30
26186;DHT22;20067;48.764;9.176;2022-08-18T04:41:50;20.20;90.80
26186;DHT22;20067;48.764;9.176;2022-08-18T04:44:17;20.20;91.00
26186;DHT22;20067;48.764;9.176;2022-08-18T04:46:52;20.30;90.10
26186;DHT22;20067;48.764;9.176;2022-08-18T04:49:22;20.30;90.40
26186;DHT22;20067;48.764;9.176;2022-08-18T04:51:50;20.30;90.20
26186;DHT22;20067;48.764;9.176;2022-08-18T04:54:37;20.20;90.30
26186;DHT22;20067;48.764;9.176;2022-08-18T04:57:14;20.20;90.60
26186;DHT22;20067;48.764;9.176;2022-08-18T04:59:43;20.30;90.60
26186;DHT22;20067;48.764;9.176;2022-08-18T05:02:10;20.40;90.30
26186;DHT22;20067;48.764;9.176;2022-08-18T05:04:39;20.50;90.20
26186;DHT22;20067;48.764;9.176;2022-08-18T05:07:09;20.50;89.90
26186;DHT22;20067;48.764;9.176;2022-08-18T05:09:36;20.60;90.00
26186;DHT22;20067;48.764;9.176;2022-08-18T05:12:04;20.60;89.70
26186;DHT22;20067;48.764;9.176;2022-08-18T05:14:30;20.70;90.20
26186;DHT22;20067;48.764;9.176;2022-08-18T05:17:03;20.80;90.00
26186;DHT22;20067;48.764;9.176;2022-08-18T05:19:29;20.80;89.80
26186;DHT22;20067;48.764;9.176;2022-08-18T05:21:58;20.90;89.30
26186;DHT22;20067;48.764;9.176;2022-08-18T05:24:25;21.00;89.10
26186;DHT22;20067;48.764;9.176;2022-08-18T05:26:52;21.00;88.90
26186;DHT22;20067;48.764;9.176;2022-08-18T05:29:19;21.00;89.30
26186;DHT22;20067;48.764;9.176;2022-08-18T05:31:47;20.90;87.80
26186;DHT22;20067;48.764;9.176;2022-08-18T05:34:14;20.90;88.60
26186;DHT22;20067;48.764;9.176;2022-08-18T05:41:49;21.10;88.30
26186;DHT22;20067;48.764;9.176;2022-08-18T05:44:21;21.10;86.90
26186;DHT22;20067;48.764;9.176;2022-08-18T05:46:53;21.20;87.40
26186;DHT22;20067;48.764;9.176;2022-08-18T05:49:20;21.20;87.80
26186;DHT22;20067;48.764;9.176;2022-08-18T05:51:48;21.20;88.00
26186;DHT22;20067;48.764;9.176;2022-08-18T05:54:16;21.20;87.80
26186;DHT22;20067;48.764;9.176;2022-08-18T05:57:11;21.30;87.20
26186;DHT22;20067;48.764;9.176;2022-08-18T05:59:40;21.30;86.60
26186;DHT22;20067;48.764;9.176;2022-08-18T06:02:33;21.30;87.00
26186;DHT22;20067;48.764;9.176;2022-08-18T06:05:12;21.40;86.40
26186;DHT22;20067;48.764;9.176;2022-08-18T06:07:45;21.40;86.90
26186;DHT22;20067;48.764;9.176;2022-08-18T06:10:14;21.30;86.10
26186;DHT22;20067;48.764;9.176;2022-08-18T06:12:43;21.30;87.00
26186;DHT22;20067;48.764;9.176;2022-08-18T06:18:03;21.30;86.60
26186;DHT22;20067;48.764;9.176;2022-08-18T06:20:42;21.40;87.00
26186;DHT22;20067;48.764;9.176;2022-08-18T06:23:30;21.60;86.00
26186;DHT22;20067;48.764;9.176;2022-08-18T06:29:05;21.80;84.30
26186;DHT22;20067;48.764;9.176;2022-08-18T06:31:47;21.90;84.40
26186;DHT22;20067;48.764;9.176;2022-08-18T06:37:47;21.80;84.30
26186;DHT22;20067;48.764;9.176;2022-08-18T06:40:34;21.90;84.90
26186;DHT22;20067;48.764;9.176;2022-08-18T06:43:00;22.10;84.00
26186;DHT22;20067;48.764;9.176;2022-08-18T06:45:36;22.20;84.10
26186;DHT22;20067;48.764;9.176;2022-08-18T06:50:52;22.20;82.30
26186;DHT22;20067;48.764;9.176;2022-08-18T06:53:18;22.30;82.90
26186;DHT22;20067;48.764;9.176;2022-08-18T06:55:47;22.30;83.00
26186;DHT22;20067;48.764;9.176;2022-08-18T07:00:53;22.20;82.60
26186;DHT22;20067;48.764;9.176;2022-08-18T07:03:23;22.30;82.90
26186;DHT22;20067;48.764;9.176;2022-08-18T07:08:47;22.50;82.30
26186;DHT22;20067;48.764;9.176;2022-08-18T07:13:43;22.60;81.20
26186;DHT22;20067;48.764;9.176;2022-08-18T07:18:41;22.70;80.90
26186;DHT22;20067;48.764;9.176;2022-08-18T07:21:07;22.70;81.20
26186;DHT22;20067;48.764;9.176;2022-08-18T07:23:38;22.80;81.00
26186;DHT22;20067;48.764;9.176;2022-08-18T07:33:39;22.90;80.30
26186;DHT22;20067;48.764;9.176;2022-08-18T07:36:07;22.80;80.10
26186;DHT22;20067;48.764;9.176;2022-08-18T07:38:50;22.60;80.20
26186;DHT22;20067;48.764;9.176;2022-08-18T07:41:31;22.40;81.30
26186;DHT22;20067;48.764;9.176;2022-08-18T07:47:02;22.40;81.60
26186;DHT22;20067;48.764;9.176;2022-08-18T07:49:34;22.40;81.30
26186;DHT22;20067;48.764;9.176;2022-08-18T07:52:47;22.40;82.00
26186;DHT22;20067;48.764;9.176;2022-08-18T07:57:49;22.30;81.80
26186;DHT22;20067;48.764;9.176;2022-08-18T08:00:36;22.40;82.50
26186;DHT22;20067;48.764;9.176;2022-08-18T08:06:16;22.40;82.10
26186;DHT22;20067;48.764;9.176;2022-08-18T08:17:02;22.30;81.70
26186;DHT22;20067;48.764;9.176;2022-08-18T08:19:52;22.30;81.90
26186;DHT22;20067;48.764;9.176;2022-08-18T08:22:36;22.30;82.70
26186;DHT22;20067;48.764;9.176;2022-08-18T08:25:22;22.40;82.40
26186;DHT22;20067;48.764;9.176;2022-08-18T08:30:43;22.30;82.50
26186;DHT22;20067;48.764;9.176;2022-08-18T08:33:18;22.40;82.00
26186;DHT22;20067;48.764;9.176;2022-08-18T08:36:04;22.50;82.30
26186;DHT22;20067;48.764;9.176;2022-08-18T08:38:44;22.60;81.90
26186;DHT22;20067;48.764;9.176;2022-08-18T08:41:37;22.70;81.40
26186;DHT22;20067;48.764;9.176;2022-08-18T08:46:59;22.90;81.70
26186;DHT22;20067;48.764;9.176;2022-08-18T08:52:08;23.00;80.30
26186;DHT22;20067;48.764;9.176;2022-08-18T08:54:53;23.40;80.50
26186;DHT22;20067;48.764;9.176;2022-08-18T08:57:26;23.60;79.80
26186;DHT22;20067;48.764;9.176;2022-08-18T08:59:55;23.60;79.50
26186;DHT22;20067;48.764;9.176;2022-08-18T09:05:23;23.60;79.80
26186;DHT22;20067;48.764;9.176;2022-08-18T09:21:32;24.20;78.90
26186;DHT22;20067;48.764;9.176;2022-08-18T09:24:28;24.60;76.10
26186;DHT22;20067;48.764;9.176;2022-08-18T09:37:53;25.40;76.00
26186;DHT22;20067;48.764;9.176;2022-08-18T09:40:48;25.70;74.40
26186;DHT22;20067;48.764;9.176;2022-08-18T09:46:05;25.90;74.90
26186;DHT22;20067;48.764;9.176;2022-08-18T09:48:34;25.80;74.40
26186;DHT22;20067;48.764;9.176;2022-08-18T09:56:13;26.50;73.60
26186;DHT22;20067;48.764;9.176;2022-08-18T09:58:58;26.40;73.60
26186;DHT22;20067;48.764;9.176;2022-08-18T10:06:40;26.50;72.00
26186;DHT22;20067;48.764;9.176;2022-08-18T10:29:50;26.70;72.10
26186;DHT22;20067;48.764;9.176;2022-08-18T10:34:46;26.80;72.20
26186;DHT22;20067;48.764;9.176;2022-08-18T10:43:06;26.50;73.10
26186;DHT22;20067;48.764;9.176;2022-08-18T10:45:52;26.70;72.30
26186;DHT22;20067;48.764;9.176;2022-08-18T10:48:23;26.80;71.60
26186;DHT22;20067;48.764;9.176;2022-08-18T10:56:28;26.70;71.80
26186;DHT22;20067;48.764;9.176;2022-08-18T11:02:14;26.90;72.70
26186;DHT22;20067;48.764;9.176;2022-08-18T11:04:50;27.50;69.70
26186;DHT22;20067;48.764;9.176;2022-08-18T11:07:24;28.40;69.50
26186;DHT22;20067;48.764;9.176;2022-08-18T11:09:53;28.60;67.70
26186;DHT22;20067;48.764;9.176;2022-08-18T11:12:51;28.80;67.50
26186;DHT22;20067;48.764;9.176;2022-08-18T11:18:28;27.10;69.00
26186;DHT22;20067;48.764;9.176;2022-08-18T11:26:35;27.50;67.40
26186;DHT22;20067;48.764;9.176;2022-08-18T11:34:49;27.10;70.60
26186;DHT22;20067;48.764;9.176;2022-08-18T11:37:34;27.20;69.70
26186;DHT22;20067;48.764;9.176;2022-08-18T11:40:04;27.20;69.90
26186;DHT22;20067;48.764;9.176;2022-08-18T11:42:38;27.40;69.50
26186;DHT22;20067;48.764;9.176;2022-08-18T11:45:16;27.30;68.90
26186;DHT22;20067;48.764;9.176;2022-08-18T11:56:30;26.80;70.20
26186;DHT22;20067;48.764;9.176;2022-08-18T11:59:00;27.00;69.50
26186;DHT22;20067;48.764;9.176;2022-08-18T12:04:06;27.10;69.70
26186;DHT22;20067;48.764;9.176;2022-08-18T12:06:33;27.30;69.40
26186;DHT22;20067;48.764;9.176;2022-08-18T12:11:50;27.10;69.50
26186;DHT22;20067;48.764;9.176;2022-08-18T12:14:20;27.20;68.00
26186;DHT22;20067;48.764;9.176;2022-08-18T12:16:46;27.30;68.80
26186;DHT22;20067;48.764;9.176;2022-08-18T12:19:13;27.10;68.40
26186;DHT22;20067;48.764;9.176;2022-08-18T12:21:42;27.30;67.70
26186;DHT22;20067;48.764;9.176;2022-08-18T12:26:42;28.20;65.60
26186;DHT22;20067;48.764;9.176;2022-08-18T12:29:08;28.80;64.40
26186;DHT22;20067;48.764;9.176;2022-08-18T12:31:33;28.70;62.60
26186;DHT22;20067;48.764;9.176;2022-08-18T12:33:59;29.00;62.70
26186;DHT22;20067;48.764;9.176;2022-08-18T12:36:25;29.30;61.70
26186;DHT22;20067;48.764;9.176;2022-08-18T12:38:51;29.40;63.20
26186;DHT22;20067;48.764;9.176;2022-08-18T12:41:17;30.20;62.40
26186;DHT22;20067;48.764;9.176;2022-08-18T12:43:42;30.80;60.50
26186;DHT22;20067;48.764;9.176;2022-08-18T12:46:08;30.80;60.60
26186;DHT22;20067;48.764;9.176;2022-08-18T12:48:35;31.00;59.20
26186;DHT22;20067;48.764;9.176;2022-08-18T12:51:02;30.30;58.30
26186;DHT22;20067;48.764;9.176;2022-08-18T12:53:27;30.00;58.90
26186;DHT22;20067;48.764;9.176;2022-08-18T12:55:54;30.10;58.30
26186;DHT22;20067;48.764;9.176;2022-08-18T12:58:20;30.50;57.90
26186;DHT22;20067;48.764;9.176;2022-08-18T13:00:45;30.60;59.20
26186;DHT22;20067;48.764;9.176;2022-08-18T13:03:12;30.80;57.10
26186;DHT22;20067;48.764;9.176;2022-08-18T13:05:39;31.00;57.00
26186;DHT22;20067;48.764;9.176;2022-08-18T13:08:11;30.70;57.40
26186;DHT22;20067;48.764;9.176;2022-08-18T13:10:38;30.90;58.80
26186;DHT22;20067;48.764;9.176;2022-08-18T13:13:03;30.80;57.80
26186;DHT22;20067;48.764;9.176;2022-08-18T13:15:30;30.70;57.90
26186;DHT22;20067;48.764;9.176;2022-08-18T13:17:57;30.30;58.90
26186;DHT22;20067;48.764;9.176;2022-08-18T13:20:23;30.30;58.50
26186;DHT22;20067;48.764;9.176;2022-08-18T13:22:49;30.50;57.60
26186;DHT22;20067;48.764;9.176;2022-08-18T13:25:15;30.70;57.50
26186;DHT22;20067;48.764;9.176;2022-08-18T13:27:42;30.80;57.60
26186;DHT22;20067;48.764;9.176;2022-08-18T13:30:10;30.20;59.20
26186;DHT22;20067;48.764;9.176;2022-08-18T13:32:36;29.80;59.50
26186;DHT22;20067;48.764;9.176;2022-08-18T13:35:03;29.60;59.50
26186;DHT22;20067;48.764;9.176;2022-08-18T13:37:29;29.90;59.40
26186;DHT22;20067;48.764;9.176;2022-08-18T13:39:58;29.60;59.80
26186;DHT22;20067;48.764;9.176;2022-08-18T13:42:25;29.00;62.70
26186;DHT22;20067;48.764;9.176;2022-08-18T13:44:54;29.10;61.80
26186;DHT22;20067;48.764;9.176;2022-08-18T13:47:20;29.20;61.30
26186;DHT22;20067;48.764;9.176;2022-08-18T13:49:47;29.60;60.20
26186;DHT22;20067;48.764;9.176;2022-08-18T13:52:12;30.10;60.00
26186;DHT22;20067;48.764;9.176;2022-08-18T13:54:39;30.90;59.20
26186;DHT22;20067;48.764;9.176;2022-08-18T13:57:05;31.50;58.40
26186;DHT22;20067;48.764;9.176;2022-08-18T13:59:31;31.70;57.20
26186;DHT22;20067;48.764;9.176;2022-08-18T14:02:00;32.20;54.80
26186;DHT22;20067;48.764;9.176;2022-08-18T14:04:26;31.70;55.10
26186;DHT22;20067;48.764;9.176;2022-08-18T14:06:53;31.20;56.50
26186;DHT22;20067;48.764;9.176;2022-08-18T14:09:20;31.50;57.00
26186;DHT22;20067;48.764;9.176;2022-08-18T14:11:46;31.90;54.50
26186;DHT22;20067;48.764;9.176;2022-08-18T14:14:13;31.80;55.60
26186;DHT22;20067;48.764;9.176;2022-08-18T14:16:39;32.00;55.40
26186;DHT22;20067;48.764;9.176;2022-08-18T14:19:05;31.70;55.50
26186;DHT22;20067;48.764;9.176;2022-08-18T14:21:52;31.30;56.40
26186;DHT22;20067;48.764;9.176;2022-08-18T14:24:37;29.70;58.60
26186;DHT22;20067;48.764;9.176;2022-08-18T14:27:27;29.70;59.60
26186;DHT22;20067;48.764;9.176;2022-08-18T14:29:55;30.10;58.10
26186;DHT22;20067;48.764;9.176;2022-08-18T14:32:23;30.80;58.60
26186;DHT22;20067;48.764;9.176;2022-08-18T14:34:49;31.10;57.30
26186;DHT22;20067;48.764;9.176;2022-08-18T14:37:15;31.20;55.90
26186;DHT22;20067;48.764;9.176;2022-08-18T14:39:40;31.00;56.70
26186;DHT22;20067;48.764;9.176;2022-08-18T14:42:06;30.80;56.80
26186;DHT22;20067;48.764;9.176;2022-08-18T14:44:32;30.10;58.30
26186;DHT22;20067;48.764;9.176;2022-08-18T14:46:57;29.70;59.60
26186;DHT22;20067;48.764;9.176;2022-08-18T14:49:23;29.60;60.00
26186;DHT22;20067;48.764;9.176;2022-08-18T14:51:49;29.60;59.90
26186;DHT22;20067;48.764;9.176;2022-08-18T14:54:15;29.60;59.60
26186;DHT22;20067;48.764;9.176;2022-08-18T14:56:41;29.50;60.30
26186;DHT22;20067;48.764;9.176;2022-08-18T14:59:07;29.60;59.50
26186;DHT22;20067;48.764;9.176;2022-08-18T15:01:35;29.70;60.70
26186;DHT22;20067;48.764;9.176;2022-08-18T15:04:01;29.90;59.70
26186;DHT22;20067;48.764;9.176;2022-08-18T15:06:27;30.00;59.90
26186;DHT22;20067;48.764;9.176;2022-08-18T15:08:54;30.00;60.10
26186;DHT22;20067;48.764;9.176;2022-08-18T15:11:20;29.90;58.80
26186;DHT22;20067;48.764;9.176;2022-08-18T15:13:46;29.70;60.00
26186;DHT22;20067;48.764;9.176;2022-08-18T15:16:13;29.50;60.10
26186;DHT22;20067;48.764;9.176;2022-08-18T15:18:44;29.50;59.80
26186;DHT22;20067;48.764;9.176;2022-08-18T15:21:11;29.50;59.10
26186;DHT22;20067;48.764;9.176;2022-08-18T15:23:55;29.70;59.20
26186;DHT22;20067;48.764;9.176;2022-08-18T15:26:39;29.70;58.90
26186;DHT22;20067;48.764;9.176;2022-08-18T15:29:06;29.40;60.20
26186;DHT22;20067;48.764;9.176;2022-08-18T15:31:36;29.00;59.00
26186;DHT22;20067;48.764;9.176;2022-08-18T15:34:02;28.60;61.90
26186;DHT22;20067;48.764;9.176;2022-08-18T15:36:28;28.60;61.20
26186;DHT22;20067;48.764;9.176;2022-08-18T15:39:00;28.70;60.50
26186;DHT22;20067;48.764;9.176;2022-08-18T15:41:38;28.40;60.50
26186;DHT22;20067;48.764;9.176;2022-08-18T15:44:06;28.10;61.10
26186;DHT22;20067;48.764;9.176;2022-08-18T15:46:34;28.10;62.40
26186;DHT22;20067;48.764;9.176;2022-08-18T15:49:01;28.10;62.80
26186;DHT22;20067;48.764;9.176;2022-08-18T15:51:30;28.00;63.30
26186;DHT22;20067;48.764;9.176;2022-08-18T15:53:55;28.00;63.60
26186;DHT22;20067;48.764;9.176;2022-08-18T15:56:23;28.10;62.50
26186;DHT22;20067;48.764;9.176;2022-08-18T15:58:49;28.10;62.60
26186;DHT22;20067;48.764;9.176;2022-08-18T16:01:17;28.10;63.70
26186;DHT22;20067;48.764;9.176;2022-08-18T16:03:46;28.20;62.80
26186;DHT22;20067;48.764;9.176;2022-08-18T16:06:14;28.10;62.20
26186;DHT22;20067;48.764;9.176;2022-08-18T16:08:41;28.10;63.00
26186;DHT22;20067;48.764;9.176;2022-08-18T16:11:12;27.90;63.90
26186;DHT22;20067;48.764;9.176;2022-08-18T16:13:40;28.00;63.20
26186;DHT22;20067;48.764;9.176;2022-08-18T16:16:15;27.90;63.40
26186;DHT22;20067;48.764;9.176;2022-08-18T16:18:43;27.90;63.80
26186;DHT22;20067;48.764;9.176;2022-08-18T16:21:14;27.70;63.90
26186;DHT22;20067;48.764;9.176;2022-08-18T16:23:43;27.70;64.80
26186;DHT22;20067;48.764;9.176;2022-08-18T16:26:10;27.50;64.50
26186;DHT22;20067;48.764;9.176;2022-08-18T16:28:44;27.30;64.20
26186;DHT22;20067;48.764;9.176;2022-08-18T16:31:10;27.30;64.10
26186;DHT22;20067;48.764;9.176;2022-08-18T16:33:43;27.30;65.10
26186;DHT22;20067;48.764;9.176;2022-08-18T16:36:10;27.10;64.60
26186;DHT22;20067;48.764;9.176;2022-08-18T16:38:37;26.90;64.80
26186;DHT22;20067;48.764;9.176;2022-08-18T16:41:11;26.70;65.00
26186;DHT22;20067;48.764;9.176;2022-08-18T16:43:41;26.50;65.80
26186;DHT22;20067;48.764;9.176;2022-08-18T16:46:14;26.50;66.40
26186;DHT22;20067;48.764;9.176;2022-08-18T16:48:40;26.60;65.80
26186;DHT22;20067;48.764;9.176;2022-08-18T16:51:06;26.70;65.70
26186;DHT22;20067;48.764;9.176;2022-08-18T16:53:31;26.70;66.40
26186;DHT22;20067;48.764;9.176;2022-08-18T16:55:57;26.50;66.40
26186;DHT22;20067;48.764;9.176;2022-08-18T16:58:23;26.40;67.30
26186;DHT22;20067;48.764;9.176;2022-08-18T17:01:07;26.30;67.80
26186;DHT22;20067;48.764;9.176;2022-08-18T17:03:51;26.30;69.10
26186;DHT22;20067;48.764;9.176;2022-08-18T17:06:34;26.10;69.80
26186;DHT22;20067;48.764;9.176;2022-08-18T17:09:00;26.00;70.90
26186;DHT22;20067;48.764;9.176;2022-08-18T17:11:26;25.90;71.30
26186;DHT22;20067;48.764;9.176;2022-08-18T17:13:55;25.80;71.60
26186;DHT22;20067;48.764;9.176;2022-08-18T17:16:22;25.60;73.10
26186;DHT22;20067;48.764;9.176;2022-08-18T17:18:52;25.70;72.20
26186;DHT22;20067;48.764;9.176;2022-08-18T17:21:22;25.70;72.30
26186;DHT22;20067;48.764;9.176;2022-08-18T17:23:49;25.60;72.40
26186;DHT22;20067;48.764;9.176;2022-08-18T17:31:41;25.30;73.30
26186;DHT22;20067;48.764;9.176;2022-08-18T17:34:11;25.20;73.40
26186;DHT22;20067;48.764;9.176;2022-08-18T17:36:51;25.20;74.20
26186;DHT22;20067;48.764;9.176;2022-08-18T17:39:23;25.10;73.80
26186;DHT22;20067;48.764;9.176;2022-08-18T17:41:49;25.10;73.80
26186;DHT22;20067;48.764;9.176;2022-08-18T17:44:34;25.10;74.20
26186;DHT22;20067;48.764;9.176;2022-08-18T17:47:02;25.10;73.90
26186;DHT22;20067;48.764;9.176;2022-08-18T17:49:37;25.00;74.60
26186;DHT22;20067;48.764;9.176;2022-08-18T17:52:24;24.80;75.30
26186;DHT22;20067;48.764;9.176;2022-08-18T17:55:00;24.90;75.30
26186;DHT22;20067;48.764;9.176;2022-08-18T17:57:31;24.90;74.80
26186;DHT22;20067;48.764;9.176;2022-08-18T18:00:06;24.90;75.50
26186;DHT22;20067;48.764;9.176;2022-08-18T18:02:37;24.90;75.40
26186;DHT22;20067;48.764;9.176;2022-08-18T18:05:07;24.90;75.50
26186;DHT22;20067;48.764;9.176;2022-08-18T18:13:21;24.70;75.80
26186;DHT22;20067;48.764;9.176;2022-08-18T18:16:00;24.60;76.00
26186;DHT22;20067;48.764;9.176;2022-08-18T18:18:41;24.60;76.20
26186;DHT22;20067;48.764;9.176;2022-08-18T18:23:44;24.60;76.50
26186;DHT22;20067;48.764;9.176;2022-08-18T18:26:27;24.60;76.20
26186;DHT22;20067;48.764;9.176;2022-08-18T18:29:22;24.50;76.20
26186;DHT22;20067;48.764;9.176;2022-08-18T18:35:08;24.40;77.00
26186;DHT22;20067;48.764;9.176;2022-08-18T18:37:42;24.40;76.20
26186;DHT22;20067;48.764;9.176;2022-08-18T18:40:19;24.30;77.30
26186;DHT22;20067;48.764;9.176;2022-08-18T18:42:45;24.30;77.10
26186;DHT22;20067;48.764;9.176;2022-08-18T18:45:21;24.30;77.10
26186;DHT22;20067;48.764;9.176;2022-08-18T18:48:09;24.30;77.10
26186;DHT22;20067;48.764;9.176;2022-08-18T18:51:04;24.30;77.20
26186;DHT22;20067;48.764;9.176;2022-08-18T18:56:40;24.40;76.50
26186;DHT22;20067;48.764;9.176;2022-08-18T19:04:54;24.20;76.90
26186;DHT22;20067;48.764;9.176;2022-08-18T19:07:26;24.20;76.40
26186;DHT22;20067;48.764;9.176;2022-08-18T19:10:12;24.20;77.10
26186;DHT22;20067;48.764;9.176;2022-08-18T19:12:49;24.10;76.50